Time;durP1;ratioP1;P1;durP2;ratioP2;P2;SDS_P1;SDS_P2;PMS_P1;PMS_P2;Temp;Humidity;BMP_temperature;BMP_pressure;BME280_temperature;BME280_humidity;BME280_pressure;Samples;Min_cycle;Max_cycle;Signal;HPM_P1;HPM_P2
2022/07/25 00:00:16;;;;;;;7.37;5.40;;;;;;;20.08;100.00;100329.94;1695620;82;21004;-43
2022/07/25 00:02:43;;;;;;;6.53;5.50;;;;;;;19.93;100.00;100321.20;1682193;83;20949;-43
2022/07/25 00:05:10;;;;;;;6.28;5.65;;;;;;;19.74;100.00;100318.32;1665033;85;22539;-43
2022/07/25 00:07:39;;;;;;;6.20;5.60;;;;;;;19.61;100.00;100322.63;1700236;83;20933;-43
2022/07/25 00:10:07;;;;;;;10.40;5.83;;;;;;;19.47;100.00;100319.01;1696950;82;21001;-43
2022/07/25 00:12:35;;;;;;;8.65;6.37;;;;;;;19.40;100.00;100317.68;1699366;83;21293;-43
2022/07/25 00:15:06;;;;;;;6.95;6.35;;;;;;;19.32;100.00;100315.49;1697172;83;21016;-43
2022/07/25 00:17:32;;;;;;;8.68;6.50;;;;;;;19.27;100.00;100300.48;1702146;82;21758;-43
2022/07/25 00:20:01;;;;;;;10.63;6.85;;;;;;;19.22;100.00;100303.36;1714710;82;20886;-43
2022/07/25 00:22:28;;;;;;;6.70;6.10;;;;;;;19.18;100.00;100311.03;1714727;82;21499;-43
2022/07/25 00:24:57;;;;;;;7.53;6.30;;;;;;;19.13;100.00;100310.45;1714694;82;21475;-43
2022/07/25 00:27:25;;;;;;;13.65;6.90;;;;;;;19.07;100.00;100304.22;1714698;82;20989;-43
2022/07/25 00:29:54;;;;;;;13.68;7.35;;;;;;;19.03;100.00;100297.02;1714738;83;21164;-43
2022/07/25 00:32:21;;;;;;;8.73;7.30;;;;;;;19.00;100.00;100302.89;1714646;82;20913;-43
2022/07/25 00:34:48;;;;;;;9.55;6.92;;;;;;;18.96;100.00;100315.31;1714635;82;21443;-43
2022/07/25 00:37:15;;;;;;;17.20;7.53;;;;;;;18.92;100.00;100319.88;1714680;83;20894;-43
2022/07/25 00:39:42;;;;;;;8.10;7.30;;;;;;;18.90;100.00;100328.30;1704656;83;21501;-43
2022/07/25 00:42:08;;;;;;;10.00;8.05;;;;;;;18.88;100.00;100325.36;1704540;83;21347;-44
2022/07/25 00:44:36;;;;;;;8.05;7.35;;;;;;;18.85;100.00;100329.02;1714798;82;21494;-43
2022/07/25 00:47:04;;;;;;;13.53;7.58;;;;;;;18.86;100.00;100319.36;1714549;83;21387;-43
2022/07/25 00:49:30;;;;;;;9.30;8.23;;;;;;;18.83;100.00;100324.33;1704509;83;20849;-44
2022/07/25 00:51:58;;;;;;;10.45;8.68;;;;;;;18.81;100.00;100323.54;1714652;82;21668;-42
2022/07/25 00:54:25;;;;;;;10.05;7.72;;;;;;;18.79;100.00;100312.30;1714904;82;21831;-43
2022/07/25 00:56:52;;;;;;;16.23;8.23;;;;;;;18.76;100.00;100310.70;1704367;83;21420;-43
2022/07/25 00:59:20;;;;;;;10.60;8.50;;;;;;;18.74;100.00;100306.47;1714733;82;20941;-43
2022/07/25 01:01:47;;;;;;;15.30;9.25;;;;;;;18.72;100.00;100302.64;1714564;82;20948;-43
2022/07/25 01:04:14;;;;;;;15.55;10.20;;;;;;;18.71;100.00;100298.33;1714691;82;21376;-44
2022/07/25 01:06:43;;;;;;;13.93;8.38;;;;;;;18.69;100.00;100301.47;1714603;83;21167;-43
2022/07/25 01:09:10;;;;;;;12.82;9.03;;;;;;;18.67;100.00;100300.26;1714602;83;21040;-43
2022/07/25 01:11:38;;;;;;;9.10;8.08;;;;;;;18.66;100.00;100307.74;1714697;83;21247;-43
2022/07/25 01:14:05;;;;;;;10.90;7.20;;;;;;;18.64;100.00;100308.30;1714667;82;21008;-44
2022/07/25 01:16:32;;;;;;;9.15;7.28;;;;;;;18.63;100.00;100309.67;1714724;82;21047;-43
2022/07/25 01:18:59;;;;;;;11.10;7.80;;;;;;;18.60;100.00;100312.02;1704470;83;21239;-42
2022/07/25 01:21:26;;;;;;;10.32;7.85;;;;;;;18.59;100.00;100320.81;1714716;83;21490;-42
2022/07/25 01:23:54;;;;;;;12.63;8.28;;;;;;;18.59;100.00;100333.05;1714671;83;21039;-43
2022/07/25 01:26:21;;;;;;;16.00;8.95;;;;;;;18.58;100.00;100325.67;1714733;83;20897;-43
2022/07/25 01:28:48;;;;;;;12.25;8.55;;;;;;;18.56;100.00;100326.67;1714801;82;21561;-43
2022/07/25 01:31:15;;;;;;;15.23;8.70;;;;;;;18.55;100.00;100315.33;1714665;82;21140;-43
2022/07/25 01:33:41;;;;;;;14.00;9.00;;;;;;;18.54;100.00;100307.08;1704495;83;20897;-43
2022/07/25 01:36:09;;;;;;;16.02;8.65;;;;;;;18.51;100.00;100301.56;1714662;83;20980;-42
2022/07/25 01:38:37;;;;;;;12.68;8.80;;;;;;;18.47;100.00;100306.59;1714680;83;21012;-43
2022/07/25 01:41:06;;;;;;;11.88;8.73;;;;;;;18.45;100.00;100311.52;1714505;82;21477;-43
2022/07/25 01:43:33;;;;;;;10.95;8.43;;;;;;;18.40;100.00;100313.07;1714695;82;21087;-43
2022/07/25 01:46:01;;;;;;;12.78;8.60;;;;;;;18.37;100.00;100314.55;1714670;83;21019;-43
2022/07/25 01:48:28;;;;;;;11.95;8.75;;;;;;;18.34;100.00;100317.34;1714737;82;20905;-43
2022/07/25 01:50:54;;;;;;;15.40;8.33;;;;;;;18.31;100.00;100315.72;1714995;83;20940;-42
2022/07/25 01:53:21;;;;;;;9.43;8.23;;;;;;;18.28;100.00;100314.57;1714969;82;20937;-43
2022/07/25 01:55:49;;;;;;;8.78;7.83;;;;;;;18.24;100.00;100317.84;1714719;82;21209;-43
2022/07/25 01:58:16;;;;;;;10.45;8.08;;;;;;;18.24;100.00;100316.98;1714813;83;21015;-43
2022/07/25 02:00:45;;;;;;;10.72;7.67;;;;;;;18.20;100.00;100308.45;1714811;82;20921;-43
2022/07/25 02:03:30;;;;;;;11.80;7.78;;;;;;;18.16;100.00;100310.83;1714693;82;21019;-43
2022/07/25 02:05:59;;;;;;;;;;;;;;;18.11;100.00;100304.16;1707127;83;20993;-43
2022/07/25 02:08:28;;;;;;;8.58;7.28;;;;;;;18.06;100.00;100302.63;1714776;83;21146;-43
2022/07/25 02:10:57;;;;;;;10.80;7.65;;;;;;;18.03;100.00;100300.14;1714901;83;21043;-43
2022/07/25 02:13:26;;;;;;;10.05;7.05;;;;;;;18.00;100.00;100289.80;1715063;82;21533;-43
2022/07/25 02:15:53;;;;;;;7.60;6.78;;;;;;;17.96;100.00;100281.73;1714900;83;20980;-44
2022/07/25 02:18:19;;;;;;;7.97;7.22;;;;;;;17.94;100.00;100261.33;1714850;83;20929;-41
2022/07/25 02:20:47;;;;;;;6.87;6.22;;;;;;;17.92;100.00;100255.33;1714853;83;21144;-41
2022/07/25 02:23:14;;;;;;;6.62;5.97;;;;;;;17.86;100.00;100242.09;1714816;82;20920;-41
2022/07/25 02:25:41;;;;;;;7.10;6.42;;;;;;;17.83;100.00;100252.73;1714767;83;21035;-43
2022/07/25 02:28:09;;;;;;;7.75;6.47;;;;;;;17.79;100.00;100250.72;1718385;82;20943;-43
2022/07/25 02:30:37;;;;;;;8.03;6.40;;;;;;;17.78;100.00;100241.66;1727674;82;21002;-43
2022/07/25 02:33:04;;;;;;;6.87;6.28;;;;;;;17.75;100.00;100238.72;1727692;82;21301;-43
2022/07/25 02:35:31;;;;;;;6.72;6.08;;;;;;;17.74;100.00;100240.13;1727700;83;20955;-43
2022/07/25 02:37:59;;;;;;;7.17;6.17;;;;;;;17.71;100.00;100250.76;1727901;82;21493;-44
2022/07/25 02:40:26;;;;;;;6.92;6.30;;;;;;;17.69;100.00;100252.13;1727693;83;21019;-44
2022/07/25 02:42:53;;;;;;;7.83;6.47;;;;;;;17.69;100.00;100256.54;1727828;82;21554;-44
2022/07/25 02:45:20;;;;;;;6.67;6.00;;;;;;;17.68;100.00;100263.53;1727742;81;21083;-43
2022/07/25 02:47:48;;;;;;;7.83;6.00;;;;;;;17.68;100.00;100266.14;1727576;82;20979;-44
2022/07/25 02:50:15;;;;;;;6.60;6.10;;;;;;;17.68;100.00;100255.67;1727710;82;20935;-43
2022/07/25 02:52:43;;;;;;;7.28;6.62;;;;;;;17.68;100.00;100259.60;1727625;82;20935;-42
2022/07/25 02:55:10;;;;;;;7.83;6.45;;;;;;;17.69;100.00;100259.98;1727624;82;20944;-43
2022/07/25 02:57:37;;;;;;;7.50;6.20;;;;;;;17.70;100.00;100265.60;1727609;82;22090;-43
2022/07/25 03:00:06;;;;;;;6.15;5.62;;;;;;;17.71;100.00;100273.84;1727636;83;20892;-43
2022/07/25 03:02:35;;;;;;;6.90;6.30;;;;;;;17.72;100.00;100272.08;1711496;83;21533;-43
2022/07/25 03:05:07;;;;;;;7.40;5.92;;;;;;;17.72;100.00;100273.39;1711268;83;20936;-43
2022/07/25 03:07:35;;;;;;;6.70;6.12;;;;;;;17.72;100.00;100278.14;1728002;83;20845;-44
2022/07/25 03:10:04;;;;;;;7.78;6.35;;;;;;;17.72;100.00;100279.45;1727742;83;21151;-44
2022/07/25 03:12:32;;;;;;;9.03;6.12;;;;;;;17.74;100.00;100268.92;1727691;83;21505;-44
2022/07/25 03:15:00;;;;;;;8.48;6.53;;;;;;;17.75;100.00;100264.89;1727684;82;20975;-43
2022/07/25 03:17:28;;;;;;;7.22;6.53;;;;;;;17.79;100.00;100259.88;1727689;82;20964;-43
2022/07/25 03:19:55;;;;;;;7.20;6.50;;;;;;;17.83;100.00;100257.13;1727741;83;21359;-43
2022/07/25 03:22:22;;;;;;;7.10;6.10;;;;;;;17.86;100.00;100251.73;1727716;83;21150;-43
2022/07/25 03:24:50;;;;;;;7.50;6.20;;;;;;;17.89;100.00;100262.04;1711225;83;20944;-43
2022/07/25 03:27:17;;;;;;;9.00;6.20;;;;;;;17.90;100.00;100263.25;1727550;82;20936;-43
2022/07/25 03:29:44;;;;;;;6.72;6.10;;;;;;;17.90;100.00;100260.63;1717083;82;20865;-43
2022/07/25 03:32:11;;;;;;;9.95;6.10;;;;;;;17.92;100.00;100263.19;1714792;82;20953;-43
2022/07/25 03:34:39;;;;;;;6.47;5.90;;;;;;;17.95;100.00;100269.12;1714783;82;21510;-43
2022/07/25 03:37:06;;;;;;;6.05;5.55;;;;;;;18.00;100.00;100262.31;1714627;83;20940;-44
2022/07/25 03:39:33;;;;;;;6.33;5.70;;;;;;;18.04;100.00;100267.80;1704728;83;20909;-43
2022/07/25 03:42:00;;;;;;;7.70;5.85;;;;;;;18.07;100.00;100268.97;1714748;82;20885;-43
2022/07/25 03:44:27;;;;;;;6.65;5.20;;;;;;;18.13;100.00;100267.77;1714746;82;20846;-43
2022/07/25 03:46:54;;;;;;;7.03;5.45;;;;;;;18.18;100.00;100270.16;1714669;83;21216;-44
2022/07/25 03:49:21;;;;;;;6.37;5.87;;;;;;;18.20;100.00;100269.61;1714815;82;20918;-43
2022/07/25 03:51:48;;;;;;;7.03;5.60;;;;;;;18.26;100.00;100267.13;1714804;82;20905;-43
2022/07/25 03:54:16;;;;;;;6.28;5.78;;;;;;;18.31;100.00;100268.56;1714774;82;20925;-43
2022/07/25 03:56:46;;;;;;;5.97;5.37;;;;;;;18.33;100.00;100274.59;1704498;83;20885;-43
2022/07/25 03:59:16;;;;;;;10.93;5.90;;;;;;;18.35;100.00;100268.80;1714798;83;21769;-43
2022/07/25 04:01:43;;;;;;;6.42;5.67;;;;;;;18.40;100.00;100271.63;1714867;83;20893;-43
2022/07/25 04:04:10;;;;;;;14.30;5.95;;;;;;;18.43;100.00;100272.77;1714607;82;20952;-42
2022/07/25 04:06:38;;;;;;;8.45;5.65;;;;;;;18.42;100.00;100269.77;1714658;83;20940;-43
2022/07/25 04:09:05;;;;;;;10.55;5.72;;;;;;;18.38;100.00;100273.01;1704517;83;21529;-43
2022/07/25 04:11:34;;;;;;;8.50;5.90;;;;;;;18.37;100.00;100269.56;1714789;83;21281;-43
2022/07/25 04:14:02;;;;;;;6.20;5.67;;;;;;;18.41;100.00;100274.63;1714671;82;21055;-43
2022/07/25 04:16:29;;;;;;;9.65;6.00;;;;;;;18.46;100.00;100274.77;1714760;82;20850;-42
2022/07/25 04:18:56;;;;;;;6.17;5.67;;;;;;;18.50;100.00;100268.88;1714712;82;20941;-42
2022/07/25 04:21:24;;;;;;;6.03;5.53;;;;;;;18.55;100.00;100266.02;1714784;83;20917;-43
2022/07/25 04:23:51;;;;;;;8.45;6.17;;;;;;;18.61;100.00;100274.39;1714927;82;21424;-42
2022/07/25 04:26:18;;;;;;;7.33;5.95;;;;;;;18.69;100.00;100270.01;1714924;82;21444;-42
2022/07/25 04:28:46;;;;;;;6.00;5.50;;;;;;;18.79;100.00;100269.03;1718504;82;20892;-43
2022/07/25 04:31:13;;;;;;;5.60;5.20;;;;;;;18.86;100.00;100267.78;1727465;82;20980;-44
2022/07/25 04:33:41;;;;;;;5.28;4.87;;;;;;;18.98;100.00;100264.97;1727540;82;20845;-43
2022/07/25 04:36:09;;;;;;;9.10;5.40;;;;;;;19.04;100.00;100259.81;1727645;82;21238;-43
2022/07/25 04:38:36;;;;;;;7.75;5.62;;;;;;;19.16;100.00;100255.64;1687805;83;20936;-43
2022/07/25 04:41:03;;;;;;;8.43;5.30;;;;;;;19.23;100.00;100264.88;1727706;82;21407;-43
2022/07/25 04:43:31;;;;;;;5.60;4.85;;;;;;;19.30;100.00;100266.64;1727611;83;20932;-42
2022/07/25 04:45:58;;;;;;;6.92;4.80;;;;;;;19.35;100.00;100261.52;1711146;83;21473;-43
2022/07/25 04:48:25;;;;;;;6.70;5.00;;;;;;;19.40;100.00;100261.26;1727532;82;22198;-44
2022/07/25 04:50:53;;;;;;;6.83;5.08;;;;;;;19.39;100.00;100266.12;1727519;82;21026;-44
2022/07/25 04:53:20;;;;;;;6.42;5.53;;;;;;;19.35;100.00;100263.31;1727646;82;21027;-43
2022/07/25 04:55:47;;;;;;;6.80;6.08;;;;;;;19.34;100.00;100262.94;1727454;82;21031;-43
2022/07/25 04:58:14;;;;;;;7.67;6.45;;;;;;;19.31;100.00;100261.33;1727681;83;20936;-43
2022/07/25 05:00:42;;;;;;;7.97;7.12;;;;;;;19.33;100.00;100261.25;1727633;83;21848;-43
2022/07/25 05:03:09;;;;;;;8.65;7.45;;;;;;;19.37;100.00;100264.06;1727531;83;20975;-43
2022/07/25 05:05:36;;;;;;;12.15;9.78;;;;;;;19.39;100.00;100261.71;1727569;82;21568;-43
2022/07/25 05:08:05;;;;;;;16.40;10.80;;;;;;;19.49;100.00;100261.19;1727581;83;20932;-43
2022/07/25 05:10:32;;;;;;;18.52;13.78;;;;;;;19.54;100.00;100263.06;1727887;82;21017;-43
2022/07/25 05:12:59;;;;;;;19.30;17.17;;;;;;;19.59;100.00;100264.12;1727509;82;21147;-43
2022/07/25 05:15:26;;;;;;;20.68;18.12;;;;;;;19.63;100.00;100266.94;1727469;82;21023;-43
2022/07/25 05:17:52;;;;;;;27.00;18.37;;;;;;;19.63;100.00;100270.87;1727613;83;20924;-43
2022/07/25 05:20:20;;;;;;;20.92;16.65;;;;;;;19.59;100.00;100271.99;1727546;82;20927;-43
2022/07/25 05:22:49;;;;;;;21.73;17.05;;;;;;;19.52;100.00;100277.58;1727581;82;20983;-43
2022/07/25 05:25:16;;;;;;;25.62;18.12;;;;;;;19.47;100.00;100273.08;1727375;82;21184;-43
2022/07/25 05:27:43;;;;;;;20.85;17.10;;;;;;;19.45;100.00;100276.27;1711010;83;21026;-43
2022/07/25 05:30:13;;;;;;;21.10;17.37;;;;;;;19.43;100.00;100274.65;1727512;82;20924;-43
2022/07/25 05:32:41;;;;;;;19.98;16.87;;;;;;;19.40;100.00;100275.69;1727475;82;21063;-43
2022/07/25 05:35:08;;;;;;;20.37;16.97;;;;;;;19.37;100.00;100276.70;1727770;82;21019;-43
2022/07/25 05:37:36;;;;;;;19.85;16.32;;;;;;;19.40;100.00;100273.06;1727506;83;21269;-43
2022/07/25 05:40:06;;;;;;;22.22;16.52;;;;;;;19.47;100.00;100270.94;1727542;82;20881;-43
2022/07/25 05:44:52;;;;;;;21.77;18.50;;;;;;;19.64;100.00;100269.45;1816268;79;22690;-43
2022/07/25 05:47:20;;;;;;;21.25;17.82;;;;;;;19.64;100.00;100272.07;1789377;80;20928;-43
2022/07/25 05:49:47;;;;;;;20.50;18.37;;;;;;;19.69;100.00;100267.87;1789253;80;21747;-43
2022/07/25 05:52:14;;;;;;;19.85;17.62;;;;;;;19.70;100.00;100264.31;1789309;80;20976;-43
2022/07/25 05:54:41;;;;;;;22.48;19.35;;;;;;;19.70;100.00;100266.08;1789301;80;20979;-43
2022/07/25 05:57:08;;;;;;;27.00;18.45;;;;;;;19.65;100.00;100269.83;1789311;80;20935;-43
2022/07/25 05:59:36;;;;;;;23.45;19.37;;;;;;;19.63;100.00;100266.45;1789007;80;20971;-43
2022/07/25 06:02:02;;;;;;;24.52;19.70;;;;;;;19.59;100.00;100262.32;1785367;80;21225;-43
2022/07/25 06:04:30;;;;;;;21.93;19.73;;;;;;;19.61;100.00;100259.62;1760506;81;21010;-43
2022/07/25 06:06:57;;;;;;;22.87;19.30;;;;;;;19.66;100.00;100266.26;1760481;79;20920;-43
2022/07/25 06:09:25;;;;;;;26.62;18.35;;;;;;;19.84;100.00;100263.96;1760647;81;21474;-43
2022/07/25 06:11:52;;;;;;;20.68;17.02;;;;;;;20.18;100.00;100265.38;1760579;81;20939;-42
2022/07/25 06:14:20;;;;;;;17.55;15.72;;;;;;;20.45;100.00;100267.70;1760688;81;21275;-43
2022/07/25 06:16:47;;;;;;;18.05;15.53;;;;;;;20.64;100.00;100260.80;1760385;81;20916;-43
2022/07/25 06:19:14;;;;;;;17.85;13.70;;;;;;;20.83;100.00;100257.84;1760416;81;20924;-43
2022/07/25 06:21:41;;;;;;;15.95;10.95;;;;;;;20.91;100.00;100250.32;1760438;80;20980;-43
2022/07/25 06:24:08;;;;;;;11.93;10.03;;;;;;;20.96;100.00;100244.28;1760618;81;21027;-43
2022/07/25 06:26:39;;;;;;;11.25;9.08;;;;;;;21.05;100.00;100245.47;1760549;80;21215;-43
2022/07/25 06:29:06;;;;;;;16.25;8.70;;;;;;;21.15;100.00;100248.34;1760453;81;20931;-43
2022/07/25 06:31:33;;;;;;;7.80;6.95;;;;;;;21.42;100.00;100238.67;1755496;81;20940;-43
2022/07/25 06:34:00;;;;;;;8.93;5.35;;;;;;;21.64;100.00;100239.39;1760596;81;21411;-43
2022/07/25 06:36:27;;;;;;;4.40;4.08;;;;;;;21.77;100.00;100238.11;1760461;80;20975;-43
2022/07/25 06:38:54;;;;;;;3.95;3.62;;;;;;;21.75;100.00;100238.20;1760426;81;21301;-43
2022/07/25 06:41:21;;;;;;;3.17;2.92;;;;;;;21.80;100.00;100237.40;1760501;81;20926;-43
2022/07/25 06:43:48;;;;;;;4.62;2.30;;;;;;;21.81;100.00;100236.45;1761659;81;21004;-44
2022/07/25 06:46:15;;;;;;;4.87;2.92;;;;;;;21.81;100.00;100246.98;1763622;81;20977;-43
2022/07/25 06:48:42;;;;;;;3.00;2.50;;;;;;;21.91;100.00;100241.09;1763773;81;20921;-43
2022/07/25 06:51:09;;;;;;;4.90;2.17;;;;;;;22.03;100.00;100240.72;1763781;81;21135;-43
2022/07/25 06:53:36;;;;;;;2.22;2.02;;;;;;;22.02;100.00;100243.81;1763770;81;20886;-43
2022/07/25 06:56:04;;;;;;;2.17;2.08;;;;;;;21.96;100.00;100240.30;1762986;81;20964;-44
2022/07/25 06:58:31;;;;;;;2.17;2.08;;;;;;;22.02;100.00;100225.37;1763253;81;20937;-44
2022/07/25 07:00:59;;;;;;;2.33;2.12;;;;;;;22.23;100.00;100227.44;1763156;81;21032;-43
2022/07/25 07:03:27;;;;;;;2.33;2.10;;;;;;;22.47;100.00;100239.84;1763176;81;21160;-43
2022/07/25 07:05:54;;;;;;;5.22;2.15;;;;;;;22.63;100.00;100239.11;1763177;81;21039;-43
2022/07/25 07:08:21;;;;;;;2.65;2.00;;;;;;;22.59;97.50;100246.85;1762990;81;20929;-43
2022/07/25 07:10:48;;;;;;;1.57;1.47;;;;;;;22.44;98.11;100240.03;1762944;81;21519;-43
2022/07/25 07:13:17;;;;;;;2.42;1.40;;;;;;;22.35;97.37;100241.53;1763171;81;20893;-43
2022/07/25 07:15:47;;;;;;;3.58;1.67;;;;;;;22.35;98.76;100238.41;1763181;81;21299;-43
2022/07/25 07:18:13;;;;;;;1.47;1.45;;;;;;;22.59;96.75;100242.89;1763165;81;21620;-43
2022/07/25 07:20:42;;;;;;;1.67;1.57;;;;;;;22.71;96.71;100239.84;1763211;81;20882;-44
2022/07/25 07:23:10;;;;;;;1.27;1.25;;;;;;;22.82;93.44;100245.65;1763052;81;21045;-43
2022/07/25 07:25:37;;;;;;;3.30;1.75;;;;;;;22.94;95.19;100242.12;1763229;81;20858;-43
2022/07/25 07:28:05;;;;;;;2.37;1.47;;;;;;;23.24;95.24;100236.81;1763091;81;21236;-43
2022/07/25 07:30:33;;;;;;;1.30;1.20;;;;;;;23.76;94.37;100231.66;1763127;81;20877;-44
2022/07/25 07:33:00;;;;;;;2.00;1.20;;;;;;;24.13;90.34;100238.53;1737336;81;21359;-44
2022/07/25 07:35:27;;;;;;;2.75;1.30;;;;;;;24.16;86.71;100238.29;1762898;81;20901;-43
2022/07/25 07:37:55;;;;;;;4.78;1.00;;;;;;;23.96;86.91;100233.56;1763206;81;21247;-43
2022/07/25 07:40:25;;;;;;;4.20;1.35;;;;;;;23.89;88.88;100229.73;1763184;81;21221;-44
2022/07/25 07:42:52;;;;;;;1.40;1.40;;;;;;;23.94;87.65;100242.09;1762964;81;20853;-43
2022/07/25 07:45:22;;;;;;;2.22;1.42;;;;;;;23.72;86.61;100241.62;1748463;81;20936;-43
2022/07/25 07:47:51;;;;;;;1.40;1.30;;;;;;;23.44;87.41;100240.25;1746907;82;21082;-44
2022/07/25 07:50:21;;;;;;;2.62;1.70;;;;;;;23.15;88.68;100241.48;1726296;82;21685;-43
2022/07/25 07:52:49;;;;;;;3.58;1.47;;;;;;;22.92;91.61;100236.58;1746938;82;21156;-43
2022/07/25 07:58:02;;;;;;;2.47;1.47;;;;;;;22.56;94.16;100244.44;1747050;81;21038;-44
2022/07/25 08:00:30;;;;;;;1.52;1.42;;;;;;;22.46;96.99;100247.36;1746876;82;20976;-44
2022/07/25 08:02:58;;;;;;;1.60;1.50;;;;;;;22.31;96.39;100245.34;1746571;82;20893;-43
2022/07/25 08:05:29;;;;;;;1.67;1.57;;;;;;;22.19;98.02;100251.02;1746532;82;21193;-44
2022/07/25 08:07:56;;;;;;;2.47;1.55;;;;;;;22.18;99.08;100250.16;1746339;82;21546;-43
2022/07/25 08:10:28;;;;;;;1.42;1.40;;;;;;;22.28;98.07;100244.25;1746625;80;21431;-43
2022/07/25 08:12:58;;;;;;;2.65;1.80;;;;;;;22.37;96.18;100245.76;1746667;82;20908;-43
2022/07/25 08:15:25;;;;;;;1.95;1.85;;;;;;;22.53;97.45;100250.80;1747006;82;21506;-43
2022/07/25 08:17:53;;;;;;;3.80;2.33;;;;;;;22.88;96.98;100249.18;1746814;82;20861;-43
2022/07/25 08:20:23;;;;;;;4.10;3.90;;;;;;;23.16;93.02;100248.44;1746715;80;20885;-44
2022/07/25 08:22:52;;;;;;;4.58;4.33;;;;;;;23.12;91.50;100250.95;1746790;80;20964;-43
2022/07/25 08:25:20;;;;;;;5.50;4.80;;;;;;;22.90;93.23;100255.19;1750376;81;20992;-43
2022/07/25 08:27:48;;;;;;;4.80;4.50;;;;;;;22.72;93.50;100258.67;1746739;82;20995;-43
2022/07/25 08:30:15;;;;;;;4.87;4.58;;;;;;;22.62;93.92;100255.03;1746715;82;22191;-43
2022/07/25 08:32:53;;;;;;;4.37;4.17;;;;;;;22.45;94.50;100256.22;1746770;82;21478;-43
2022/07/25 08:35:20;;;;;;;5.37;4.30;;;;;;;22.18;95.61;100264.65;1746722;82;20956;-43
2022/07/25 08:37:48;;;;;;;3.95;3.62;;;;;;;21.89;96.99;100262.75;1746650;80;20983;-43
2022/07/25 08:40:16;;;;;;;5.78;3.95;;;;;;;21.70;98.10;100261.37;1746817;82;21430;-43
2022/07/25 08:42:43;;;;;;;4.00;3.70;;;;;;;21.48;99.82;100269.39;1746831;82;21255;-42
2022/07/25 08:45:12;;;;;;;5.00;4.67;;;;;;;21.27;100.00;100265.10;1758179;81;20960;-43
2022/07/25 08:47:40;;;;;;;5.05;4.45;;;;;;;21.20;100.00;100273.01;1762973;81;20988;-44
2022/07/25 08:50:10;;;;;;;5.17;4.67;;;;;;;21.09;100.00;100268.45;1763084;81;21569;-43
2022/07/25 08:52:37;;;;;;;5.05;4.65;;;;;;;21.05;100.00;100260.39;1763205;81;20984;-43
2022/07/25 08:55:08;;;;;;;5.55;5.05;;;;;;;21.21;100.00;100268.12;1762899;81;21894;-43
2022/07/25 08:57:35;;;;;;;4.95;4.65;;;;;;;21.39;100.00;100266.89;1736843;81;21495;-44
2022/07/25 09:00:05;;;;;;;4.50;4.17;;;;;;;21.69;100.00;100263.65;1763272;81;20850;-44
2022/07/25 09:02:32;;;;;;;3.70;3.50;;;;;;;22.02;100.00;100262.25;1763001;81;20858;-44
2022/07/25 09:05:00;;;;;;;3.87;3.60;;;;;;;22.35;99.26;100255.54;1762994;81;20985;-44
2022/07/25 09:07:40;;;;;;;5.97;3.02;;;;;;;22.72;97.46;100258.67;1763347;81;20890;-44
2022/07/25 09:10:23;;;;;;;3.30;3.10;;;;;;;23.03;95.32;100254.26;1737715;81;21019;-44
2022/07/25 09:12:58;;;;;;;2.27;2.17;;;;;;;23.45;93.19;100255.98;1762944;81;20921;-43
2022/07/25 09:15:31;;;;;;;2.08;1.87;;;;;;;24.04;92.88;100255.45;1762964;81;20960;-44
2022/07/25 09:18:07;;;;;;;2.00;1.80;;;;;;;24.49;87.03;100253.23;1763186;81;20921;-44
2022/07/25 09:20:47;;;;;;;1.55;1.50;;;;;;;24.59;85.57;100252.01;1737990;81;21256;-44
2022/07/25 09:23:27;;;;;;;1.10;1.10;;;;;;;24.59;84.69;100254.66;1763195;81;20910;-44
2022/07/25 09:26:10;;;;;;;1.65;1.17;;;;;;;24.67;83.70;100268.12;1762707;81;21024;-45
2022/07/25 09:28:47;;;;;;;2.35;1.20;;;;;;;24.78;85.68;100261.13;1763074;81;20961;-45
2022/07/25 09:31:15;;;;;;;1.45;0.98;;;;;;;24.86;81.66;100270.59;1762873;81;20945;-44
2022/07/25 09:33:55;;;;;;;2.87;1.10;;;;;;;24.72;81.54;100266.90;1762874;81;21379;-44
2022/07/25 09:36:23;;;;;;;1.85;1.12;;;;;;;24.44;82.94;100262.02;1763169;81;21439;-44
2022/07/25 09:38:59;;;;;;;1.05;0.90;;;;;;;24.19;83.73;100273.73;1762993;81;20941;-45
2022/07/25 09:41:37;;;;;;;1.00;1.00;;;;;;;23.85;85.32;100276.31;1762879;81;21431;-44
2022/07/25 09:44:18;;;;;;;0.85;0.62;;;;;;;23.47;87.50;100273.02;1760699;81;20952;-45
2022/07/25 09:46:45;;;;;;;1.30;0.70;;;;;;;22.98;90.30;100290.71;1746790;82;21271;-45
2022/07/25 09:49:15;;;;;;;5.70;1.20;;;;;;;22.05;96.69;100294.98;1746655;81;20913;-45
2022/07/25 09:51:43;;;;;;;4.62;0.80;;;;;;;20.98;100.00;100288.91;1746842;82;20984;-44
2022/07/25 09:54:12;;;;;;;1.00;0.60;;;;;;;20.13;100.00;100299.45;1746656;80;20877;-45
2022/07/25 09:56:39;;;;;;;1.25;0.50;;;;;;;19.59;100.00;100294.30;1746508;80;21438;-45
2022/07/25 09:59:06;;;;;;;3.42;0.62;;;;;;;19.33;100.00;100292.73;1746789;81;21240;-45
2022/07/25 10:01:38;;;;;;;0.72;0.40;;;;;;;19.14;100.00;100292.47;1746669;81;21063;-44
2022/07/25 10:04:20;;;;;;;0.72;0.55;;;;;;;19.04;100.00;100290.84;1743689;82;20935;-44
2022/07/25 10:07:06;;;;;;;1.47;0.40;;;;;;;19.02;100.00;100290.08;1746656;82;21019;-44
2022/07/25 10:09:33;;;;;;;1.10;0.55;;;;;;;19.03;100.00;100286.98;1746874;81;20960;-43
2022/07/25 10:12:08;;;;;;;1.85;0.60;;;;;;;19.07;100.00;100281.93;1746644;81;20896;-43
2022/07/25 10:14:36;;;;;;;3.92;0.57;;;;;;;19.13;100.00;100281.60;1746653;82;20941;-44
2022/07/25 10:17:04;;;;;;;1.25;0.60;;;;;;;19.35;100.00;100277.75;1746628;82;20936;-44
2022/07/25 10:19:46;;;;;;;3.40;0.70;;;;;;;19.56;100.00;100272.14;1746543;82;20940;-42
2022/07/25 10:22:14;;;;;;;0.85;0.57;;;;;;;19.73;100.00;100273.31;1746806;82;21015;-43
2022/07/25 10:24:45;;;;;;;1.02;0.85;;;;;;;19.89;100.00;100271.09;1746675;81;21267;-43
2022/07/25 10:27:16;;;;;;;1.00;0.88;;;;;;;20.11;100.00;100264.07;1746499;82;21036;-43
2022/07/25 10:29:43;;;;;;;1.57;0.70;;;;;;;20.35;100.00;100272.23;1746234;82;20924;-43
2022/07/25 10:32:12;;;;;;;3.37;0.65;;;;;;;20.54;100.00;100277.63;1701802;82;20901;-43
2022/07/25 10:34:39;;;;;;;0.90;0.90;;;;;;;20.80;100.00;100268.11;1747042;82;20988;-43
2022/07/25 10:37:14;;;;;;;0.75;0.75;;;;;;;21.02;100.00;100264.09;1747104;82;22149;-42
2022/07/25 10:39:43;;;;;;;0.95;0.62;;;;;;;21.37;100.00;100264.02;1747139;82;20980;-43
2022/07/25 10:42:14;;;;;;;1.12;0.93;;;;;;;21.74;100.00;100258.91;1746728;82;20936;-43
2022/07/25 10:44:43;;;;;;;1.15;0.90;;;;;;;22.20;100.00;100261.92;1746623;81;20937;-42
2022/07/25 10:47:12;;;;;;;3.20;1.40;;;;;;;22.42;100.00;100252.00;1746759;81;20968;-43
2022/07/25 10:49:48;;;;;;;1.62;1.00;;;;;;;22.55;100.00;100257.27;1746881;82;21225;-43
2022/07/25 10:52:17;;;;;;;3.33;1.20;;;;;;;22.54;100.00;100255.58;1746775;82;21549;-43
2022/07/25 10:54:58;;;;;;;1.47;1.37;;;;;;;22.58;100.00;100250.94;1746667;81;20985;-43
2022/07/25 10:57:25;;;;;;;1.77;1.67;;;;;;;22.60;100.00;100251.66;1746885;82;20948;-43
2022/07/25 10:59:53;;;;;;;4.83;2.35;;;;;;;22.61;100.00;100248.92;1746930;82;20983;-43
2022/07/25 11:13:42;;;;;;;3.10;2.85;;;;;;;22.06;100.00;100249.23;1792487;78;22708;-43
2022/07/25 11:16:13;;;;;;;2.77;2.60;;;;;;;21.94;100.00;100244.83;1753541;80;20903;-43
2022/07/25 11:18:41;;;;;;;2.77;2.47;;;;;;;22.00;100.00;100240.94;1755637;80;21015;-43
2022/07/25 11:21:08;;;;;;;2.98;2.80;;;;;;;22.30;100.00;100235.27;1768644;80;21556;-43
2022/07/25 11:23:35;;;;;;;2.98;2.80;;;;;;;22.81;100.00;100230.78;1759555;80;20884;-43
2022/07/25 11:26:09;;;;;;;3.70;3.40;;;;;;;23.19;100.00;100222.27;1770597;80;20972;-43
2022/07/25 11:28:47;;;;;;;4.75;3.20;;;;;;;23.64;100.00;100222.39;1759320;80;20944;-43
2022/07/25 11:31:16;;;;;;;4.92;3.22;;;;;;;24.17;100.00;100220.14;1748083;80;21762;-43
2022/07/25 11:33:45;;;;;;;3.85;3.55;;;;;;;24.53;100.00;100218.98;1772465;80;20952;-44
2022/07/25 11:36:13;;;;;;;3.47;3.30;;;;;;;24.92;99.54;100213.20;1772138;80;21676;-43
2022/07/25 11:38:40;;;;;;;3.50;3.27;;;;;;;25.32;94.53;100204.19;1761718;80;21406;-43